ADDS TAF Data INFO
IDs: Format: Raw Decoded Include METARs

Data at: 1739 UTC 15 Dec 2017

METAR for:KMOB (Mobile Rgnl, AL, US)
Text:KMOB 151656Z 36007KT 7SM FEW050 OVC100 09/02 A3022 RMK AO2 SLP231 T00890017 $
Temperature: 8.9°C ( 48°F)
Dewpoint: 1.7°C ( 35°F) [RH = 61%]
Pressure (altimeter):30.22 inches Hg (1023.5 mb) [Sea level pressure: 1023.1 mb]
Winds:from the N (360 degrees) at 8 MPH (7 knots; 3.6 m/s)
Visibility: 7 sm ( 11 km)
Ceiling:10000 feet AGL
Clouds: few clouds at 5000 feet AGL, overcast cloud deck at 10000 feet AGL
QC Flag:SOME DATA ABOVE MAY BE INACCURATE!!!"$" is an indication the sensor requires maintenance.

TAF for:KMOB (Mobile Rgnl, AL, US) issued at 1720 UTC 15 Dec 2017
Text:KMOB 151720Z 1518/1618 34007KT P6SM -DZ BKN080 OVC150
Forecast period:1800 UTC 15 December 2017 to 1800 UTC 16 December 2017
Forecast type:FROM: standard forecast or significant change
Winds:from the NNW (340 degrees) at 8 MPH (7 knots; 3.6 m/s)
Visibility:6 or more sm (10+ km)
Ceiling:8000 feet AGL
Clouds: broken clouds at 8000 feet AGL, overcast cloud deck at 15000 feet AGL
Weather:-DZ (light drizzle)